sensor_id;sensor_type;location;lat;lon;timestamp;temperature;humidity
27745;DHT22;61387;48.112;8.616;2023-09-19T00:08:27;14.50;99.90
27745;DHT22;61387;48.112;8.616;2023-09-19T00:10:54;14.40;99.90
27745;DHT22;61387;48.112;8.616;2023-09-19T00:15:48;14.40;99.90
27745;DHT22;61387;48.112;8.616;2023-09-19T00:28:04;14.30;99.90
27745;DHT22;61387;48.112;8.616;2023-09-19T00:35:23;14.30;99.90
27745;DHT22;61387;48.112;8.616;2023-09-19T00:45:14;14.30;99.90
27745;DHT22;61387;48.112;8.616;2023-09-19T00:47:50;14.30;99.90
27745;DHT22;61387;48.112;8.616;2023-09-19T00:50:17;14.40;99.90
27745;DHT22;61387;48.112;8.616;2023-09-19T00:52:46;14.40;99.90
27745;DHT22;61387;48.112;8.616;2023-09-19T00:55:14;14.40;99.90
27745;DHT22;61387;48.112;8.616;2023-09-19T01:00:08;14.40;99.90
27745;DHT22;61387;48.112;8.616;2023-09-19T01:02:36;14.40;99.90
27745;DHT22;61387;48.112;8.616;2023-09-19T01:07:32;14.40;99.90
27745;DHT22;61387;48.112;8.616;2023-09-19T01:10:03;14.40;99.90
27745;DHT22;61387;48.112;8.616;2023-09-19T01:18:27;14.40;99.90
27745;DHT22;61387;48.112;8.616;2023-09-19T01:29:45;14.50;99.90
27745;DHT22;61387;48.112;8.616;2023-09-19T01:32:15;14.50;99.90
27745;DHT22;61387;48.112;8.616;2023-09-19T01:34:55;14.60;99.90
27745;DHT22;61387;48.112;8.616;2023-09-19T01:37:29;14.60;99.90
27745;DHT22;61387;48.112;8.616;2023-09-19T01:40:07;14.60;99.90
27745;DHT22;61387;48.112;8.616;2023-09-19T01:48:29;14.60;99.90
27745;DHT22;61387;48.112;8.616;2023-09-19T01:51:02;14.50;99.90
27745;DHT22;61387;48.112;8.616;2023-09-19T01:53:33;14.50;99.90
27745;DHT22;61387;48.112;8.616;2023-09-19T01:56:01;14.50;99.90
27745;DHT22;61387;48.112;8.616;2023-09-19T01:58:36;14.50;99.90
27745;DHT22;61387;48.112;8.616;2023-09-19T02:01:04;14.50;99.90
27745;DHT22;61387;48.112;8.616;2023-09-19T02:03:35;14.50;99.90
27745;DHT22;61387;48.112;8.616;2023-09-19T02:20:45;14.40;99.90
27745;DHT22;61387;48.112;8.616;2023-09-19T02:23:12;14.50;99.90
27745;DHT22;61387;48.112;8.616;2023-09-19T02:42:49;14.50;99.90
27745;DHT22;61387;48.112;8.616;2023-09-19T02:47:47;14.50;99.90
27745;DHT22;61387;48.112;8.616;2023-09-19T02:50:14;14.50;99.90
27745;DHT22;61387;48.112;8.616;2023-09-19T02:52:43;14.50;99.90
27745;DHT22;61387;48.112;8.616;2023-09-19T03:00:07;14.60;99.90
27745;DHT22;61387;48.112;8.616;2023-09-19T03:29:24;14.50;99.90
27745;DHT22;61387;48.112;8.616;2023-09-19T03:39:09;14.50;99.90
27745;DHT22;61387;48.112;8.616;2023-09-19T03:58:40;14.40;99.90
27745;DHT22;61387;48.112;8.616;2023-09-19T04:03:35;14.50;99.90
27745;DHT22;61387;48.112;8.616;2023-09-19T04:06:15;14.50;99.90
27745;DHT22;61387;48.112;8.616;2023-09-19T04:11:07;14.50;99.90
27745;DHT22;61387;48.112;8.616;2023-09-19T04:25:43;14.60;99.90
27745;DHT22;61387;48.112;8.616;2023-09-19T04:28:10;14.60;99.90
27745;DHT22;61387;48.112;8.616;2023-09-19T04:35:35;14.60;99.90
27745;DHT22;61387;48.112;8.616;2023-09-19T04:38:00;14.60;99.90
27745;DHT22;61387;48.112;8.616;2023-09-19T04:40:26;14.50;99.90
27745;DHT22;61387;48.112;8.616;2023-09-19T04:42:58;14.50;99.90
27745;DHT22;61387;48.112;8.616;2023-09-19T04:45:27;14.50;99.90
27745;DHT22;61387;48.112;8.616;2023-09-19T04:47:53;14.40;99.90
27745;DHT22;61387;48.112;8.616;2023-09-19T04:50:20;14.40;99.90
27745;DHT22;61387;48.112;8.616;2023-09-19T04:52:49;14.30;99.90
27745;DHT22;61387;48.112;8.616;2023-09-19T04:55:17;14.20;99.90
27745;DHT22;61387;48.112;8.616;2023-09-19T04:57:47;14.20;99.90
27745;DHT22;61387;48.112;8.616;2023-09-19T05:00:20;14.10;99.90
27745;DHT22;61387;48.112;8.616;2023-09-19T05:02:50;14.10;99.90
27745;DHT22;61387;48.112;8.616;2023-09-19T05:15:04;14.00;99.90
27745;DHT22;61387;48.112;8.616;2023-09-19T05:29:45;14.20;99.90
27745;DHT22;61387;48.112;8.616;2023-09-19T05:34:38;14.20;99.90
27745;DHT22;61387;48.112;8.616;2023-09-19T05:37:04;14.30;99.90
27745;DHT22;61387;48.112;8.616;2023-09-19T05:39:33;14.40;99.90
27745;DHT22;61387;48.112;8.616;2023-09-19T05:54:12;14.70;99.90
27745;DHT22;61387;48.112;8.616;2023-09-19T05:56:38;14.70;99.90
27745;DHT22;61387;48.112;8.616;2023-09-19T06:08:52;15.00;99.90
27745;DHT22;61387;48.112;8.616;2023-09-19T06:23:34;15.40;99.90
27745;DHT22;61387;48.112;8.616;2023-09-19T06:28:26;15.40;99.90
27745;DHT22;61387;48.112;8.616;2023-09-19T06:43:12;15.40;99.90
27745;DHT22;61387;48.112;8.616;2023-09-19T06:48:04;15.50;99.90
27745;DHT22;61387;48.112;8.616;2023-09-19T06:50:30;15.50;99.90
27745;DHT22;61387;48.112;8.616;2023-09-19T07:02:58;15.60;99.90
27745;DHT22;61387;48.112;8.616;2023-09-19T07:05:29;15.60;99.90
27745;DHT22;61387;48.112;8.616;2023-09-19T07:12:58;15.90;99.90
27745;DHT22;61387;48.112;8.616;2023-09-19T07:15:28;16.10;99.90
27745;DHT22;61387;48.112;8.616;2023-09-19T07:17:54;16.20;99.90
27745;DHT22;61387;48.112;8.616;2023-09-19T07:22:49;16.40;99.90
27745;DHT22;61387;48.112;8.616;2023-09-19T07:30:09;16.80;99.90
27745;DHT22;61387;48.112;8.616;2023-09-19T07:32:35;16.90;99.90
27745;DHT22;61387;48.112;8.616;2023-09-19T07:35:02;17.00;99.90
27745;DHT22;61387;48.112;8.616;2023-09-19T07:37:29;17.10;99.90
27745;DHT22;61387;48.112;8.616;2023-09-19T07:39:56;17.10;99.90
27745;DHT22;61387;48.112;8.616;2023-09-19T07:52:08;16.50;99.90
27745;DHT22;61387;48.112;8.616;2023-09-19T07:57:02;16.90;99.90
27745;DHT22;61387;48.112;8.616;2023-09-19T08:01:53;17.20;99.90
27745;DHT22;61387;48.112;8.616;2023-09-19T08:14:08;17.50;99.90
27745;DHT22;61387;48.112;8.616;2023-09-19T08:16:34;17.30;99.90
27745;DHT22;61387;48.112;8.616;2023-09-19T08:21:25;17.30;99.90
27745;DHT22;61387;48.112;8.616;2023-09-19T08:28:48;17.50;99.90
27745;DHT22;61387;48.112;8.616;2023-09-19T08:31:16;17.90;99.90
27745;DHT22;61387;48.112;8.616;2023-09-19T08:33:43;18.20;99.90
27745;DHT22;61387;48.112;8.616;2023-09-19T08:36:15;18.00;99.90
27745;DHT22;61387;48.112;8.616;2023-09-19T08:38:41;17.80;99.90
27745;DHT22;61387;48.112;8.616;2023-09-19T08:41:08;17.70;99.90
27745;DHT22;61387;48.112;8.616;2023-09-19T08:43:34;17.70;99.90
27745;DHT22;61387;48.112;8.616;2023-09-19T08:46:10;17.80;99.90
27745;DHT22;61387;48.112;8.616;2023-09-19T08:48:46;17.80;99.90
27745;DHT22;61387;48.112;8.616;2023-09-19T08:51:41;17.80;99.90
27745;DHT22;61387;48.112;8.616;2023-09-19T08:54:19;18.10;99.90
27745;DHT22;61387;48.112;8.616;2023-09-19T08:56:48;18.00;99.90
27745;DHT22;61387;48.112;8.616;2023-09-19T08:59:14;18.20;99.90
27745;DHT22;61387;48.112;8.616;2023-09-19T09:01:41;18.50;99.90
27745;DHT22;61387;48.112;8.616;2023-09-19T09:04:11;18.50;99.90
27745;DHT22;61387;48.112;8.616;2023-09-19T09:06:41;18.00;99.90
27745;DHT22;61387;48.112;8.616;2023-09-19T09:09:08;18.20;99.90
27745;DHT22;61387;48.112;8.616;2023-09-19T09:11:34;18.20;99.90
27745;DHT22;61387;48.112;8.616;2023-09-19T09:14:02;18.20;99.90
27745;DHT22;61387;48.112;8.616;2023-09-19T09:16:29;18.10;99.90
27745;DHT22;61387;48.112;8.616;2023-09-19T09:21:23;18.00;99.90
27745;DHT22;61387;48.112;8.616;2023-09-19T09:23:50;17.80;99.90
27745;DHT22;61387;48.112;8.616;2023-09-19T09:26:17;17.80;99.90
27745;DHT22;61387;48.112;8.616;2023-09-19T09:28:46;17.70;99.90
27745;DHT22;61387;48.112;8.616;2023-09-19T09:31:23;17.60;99.90
27745;DHT22;61387;48.112;8.616;2023-09-19T09:33:54;17.80;99.90
27745;DHT22;61387;48.112;8.616;2023-09-19T09:36:34;17.70;99.90
27745;DHT22;61387;48.112;8.616;2023-09-19T09:38:59;17.70;99.90
27745;DHT22;61387;48.112;8.616;2023-09-19T09:44:17;17.70;99.90
27745;DHT22;61387;48.112;8.616;2023-09-19T09:46:47;17.70;99.90
27745;DHT22;61387;48.112;8.616;2023-09-19T09:49:26;17.80;99.90
27745;DHT22;61387;48.112;8.616;2023-09-19T09:54:27;17.70;99.90
27745;DHT22;61387;48.112;8.616;2023-09-19T09:57:03;17.90;99.90
27745;DHT22;61387;48.112;8.616;2023-09-19T09:59:55;17.90;99.90
27745;DHT22;61387;48.112;8.616;2023-09-19T10:02:28;17.70;99.90
27745;DHT22;61387;48.112;8.616;2023-09-19T10:04:58;17.70;99.90
27745;DHT22;61387;48.112;8.616;2023-09-19T10:10:05;17.80;99.90
27745;DHT22;61387;48.112;8.616;2023-09-19T10:12:49;17.80;99.90
27745;DHT22;61387;48.112;8.616;2023-09-19T10:15:17;18.00;99.90
27745;DHT22;61387;48.112;8.616;2023-09-19T10:17:46;18.10;99.90
27745;DHT22;61387;48.112;8.616;2023-09-19T10:20:14;18.10;99.90
27745;DHT22;61387;48.112;8.616;2023-09-19T10:23:10;18.10;99.90
27745;DHT22;61387;48.112;8.616;2023-09-19T10:25:41;18.40;99.90
27745;DHT22;61387;48.112;8.616;2023-09-19T10:28:08;18.70;99.90
27745;DHT22;61387;48.112;8.616;2023-09-19T10:30:38;18.70;99.90
27745;DHT22;61387;48.112;8.616;2023-09-19T10:33:10;18.70;99.90
27745;DHT22;61387;48.112;8.616;2023-09-19T10:35:38;18.80;99.90
27745;DHT22;61387;48.112;8.616;2023-09-19T10:38:06;18.70;99.90
27745;DHT22;61387;48.112;8.616;2023-09-19T10:40:33;18.60;99.90
27745;DHT22;61387;48.112;8.616;2023-09-19T10:43:03;18.90;99.90
27745;DHT22;61387;48.112;8.616;2023-09-19T10:45:31;18.80;99.90
27745;DHT22;61387;48.112;8.616;2023-09-19T10:47:57;18.90;99.90
27745;DHT22;61387;48.112;8.616;2023-09-19T10:50:24;18.60;99.90
27745;DHT22;61387;48.112;8.616;2023-09-19T10:52:51;18.80;99.90
27745;DHT22;61387;48.112;8.616;2023-09-19T10:55:27;18.90;99.90
27745;DHT22;61387;48.112;8.616;2023-09-19T10:57:54;19.00;99.90
27745;DHT22;61387;48.112;8.616;2023-09-19T11:00:54;19.10;99.90
27745;DHT22;61387;48.112;8.616;2023-09-19T11:03:20;19.40;99.90
27745;DHT22;61387;48.112;8.616;2023-09-19T11:08:54;19.70;99.90
27745;DHT22;61387;48.112;8.616;2023-09-19T11:14:40;19.90;99.90
27745;DHT22;61387;48.112;8.616;2023-09-19T11:30:49;19.30;99.90
27745;DHT22;61387;48.112;8.616;2023-09-19T11:33:18;19.60;99.90
27745;DHT22;61387;48.112;8.616;2023-09-19T11:36:10;19.90;99.90
27745;DHT22;61387;48.112;8.616;2023-09-19T11:43:45;19.30;99.90
27745;DHT22;61387;48.112;8.616;2023-09-19T11:46:12;19.30;99.90
27745;DHT22;61387;48.112;8.616;2023-09-19T11:48:39;19.30;99.90
27745;DHT22;61387;48.112;8.616;2023-09-19T11:51:11;19.20;99.90
27745;DHT22;61387;48.112;8.616;2023-09-19T11:53:45;19.50;99.90
27745;DHT22;61387;48.112;8.616;2023-09-19T11:58:41;20.00;99.90
27745;DHT22;61387;48.112;8.616;2023-09-19T12:01:08;19.90;99.90
27745;DHT22;61387;48.112;8.616;2023-09-19T12:03:42;19.90;99.90
27745;DHT22;61387;48.112;8.616;2023-09-19T12:08:41;20.50;99.90
27745;DHT22;61387;48.112;8.616;2023-09-19T12:11:11;20.50;99.90
27745;DHT22;61387;48.112;8.616;2023-09-19T12:13:44;20.10;99.90
27745;DHT22;61387;48.112;8.616;2023-09-19T12:16:18;20.20;99.90
27745;DHT22;61387;48.112;8.616;2023-09-19T12:18:48;20.20;99.90
27745;DHT22;61387;48.112;8.616;2023-09-19T12:21:45;20.20;99.90
27745;DHT22;61387;48.112;8.616;2023-09-19T12:24:19;20.10;99.90
27745;DHT22;61387;48.112;8.616;2023-09-19T12:26:46;20.40;99.90
27745;DHT22;61387;48.112;8.616;2023-09-19T12:29:19;20.20;99.90
27745;DHT22;61387;48.112;8.616;2023-09-19T12:32:04;20.00;99.90
27745;DHT22;61387;48.112;8.616;2023-09-19T12:34:31;20.10;99.90
27745;DHT22;61387;48.112;8.616;2023-09-19T12:37:10;20.20;99.90
27745;DHT22;61387;48.112;8.616;2023-09-19T12:39:42;20.30;99.90
27745;DHT22;61387;48.112;8.616;2023-09-19T12:42:12;20.40;99.90
27745;DHT22;61387;48.112;8.616;2023-09-19T12:44:44;20.30;99.90
27745;DHT22;61387;48.112;8.616;2023-09-19T12:47:11;20.40;99.90
27745;DHT22;61387;48.112;8.616;2023-09-19T12:50:06;20.50;99.90
27745;DHT22;61387;48.112;8.616;2023-09-19T12:52:40;20.50;99.90
27745;DHT22;61387;48.112;8.616;2023-09-19T12:55:06;20.50;99.90
27745;DHT22;61387;48.112;8.616;2023-09-19T12:57:34;20.70;99.90
27745;DHT22;61387;48.112;8.616;2023-09-19T13:00:01;20.70;99.90
27745;DHT22;61387;48.112;8.616;2023-09-19T13:04:54;20.50;99.90
27745;DHT22;61387;48.112;8.616;2023-09-19T13:07:43;20.60;99.90
27745;DHT22;61387;48.112;8.616;2023-09-19T13:10:11;20.80;99.90
27745;DHT22;61387;48.112;8.616;2023-09-19T13:12:41;20.60;99.90
27745;DHT22;61387;48.112;8.616;2023-09-19T13:15:11;20.70;99.90
27745;DHT22;61387;48.112;8.616;2023-09-19T13:17:48;20.60;99.90
27745;DHT22;61387;48.112;8.616;2023-09-19T13:20:25;20.70;99.90
27745;DHT22;61387;48.112;8.616;2023-09-19T13:22:53;20.80;99.90
27745;DHT22;61387;48.112;8.616;2023-09-19T13:25:22;20.70;99.90
27745;DHT22;61387;48.112;8.616;2023-09-19T13:27:49;20.60;99.90
27745;DHT22;61387;48.112;8.616;2023-09-19T13:30:21;20.70;99.90
27745;DHT22;61387;48.112;8.616;2023-09-19T13:32:47;21.10;99.90
27745;DHT22;61387;48.112;8.616;2023-09-19T13:35:13;21.10;99.90
27745;DHT22;61387;48.112;8.616;2023-09-19T13:37:40;21.30;99.90
27745;DHT22;61387;48.112;8.616;2023-09-19T13:42:35;21.20;99.90
27745;DHT22;61387;48.112;8.616;2023-09-19T13:45:02;20.80;99.90
27745;DHT22;61387;48.112;8.616;2023-09-19T13:52:21;21.30;99.90
27745;DHT22;61387;48.112;8.616;2023-09-19T13:54:50;21.10;99.90
27745;DHT22;61387;48.112;8.616;2023-09-19T13:57:17;21.00;99.90
27745;DHT22;61387;48.112;8.616;2023-09-19T13:59:44;21.20;99.90
27745;DHT22;61387;48.112;8.616;2023-09-19T14:02:10;21.20;99.90
27745;DHT22;61387;48.112;8.616;2023-09-19T14:07:02;21.30;99.90
27745;DHT22;61387;48.112;8.616;2023-09-19T14:09:29;21.10;99.90
27745;DHT22;61387;48.112;8.616;2023-09-19T14:11:55;21.00;99.90
27745;DHT22;61387;48.112;8.616;2023-09-19T14:14:21;21.10;99.90
27745;DHT22;61387;48.112;8.616;2023-09-19T14:16:50;21.10;99.90
27745;DHT22;61387;48.112;8.616;2023-09-19T14:19:17;20.80;99.90
27745;DHT22;61387;48.112;8.616;2023-09-19T14:24:09;20.70;99.90
27745;DHT22;61387;48.112;8.616;2023-09-19T14:26:35;20.80;99.90
27745;DHT22;61387;48.112;8.616;2023-09-19T14:29:01;21.00;99.90
27745;DHT22;61387;48.112;8.616;2023-09-19T14:33:54;20.80;99.90
27745;DHT22;61387;48.112;8.616;2023-09-19T14:36:21;20.80;99.90
27745;DHT22;61387;48.112;8.616;2023-09-19T14:38:47;20.80;99.90
27745;DHT22;61387;48.112;8.616;2023-09-19T14:43:38;20.80;99.90
27745;DHT22;61387;48.112;8.616;2023-09-19T14:46:05;20.80;99.90
27745;DHT22;61387;48.112;8.616;2023-09-19T14:48:33;21.10;99.90
27745;DHT22;61387;48.112;8.616;2023-09-19T14:51:03;21.20;99.90
27745;DHT22;61387;48.112;8.616;2023-09-19T14:53:30;21.30;99.90
27745;DHT22;61387;48.112;8.616;2023-09-19T15:00:48;21.30;99.90
27745;DHT22;61387;48.112;8.616;2023-09-19T15:05:40;21.40;99.90
27745;DHT22;61387;48.112;8.616;2023-09-19T15:08:05;21.70;99.90
27745;DHT22;61387;48.112;8.616;2023-09-19T15:12:57;21.70;99.90
27745;DHT22;61387;48.112;8.616;2023-09-19T15:22:41;21.10;99.90
27745;DHT22;61387;48.112;8.616;2023-09-19T15:25:08;23.30;99.90
27745;DHT22;61387;48.112;8.616;2023-09-19T15:27:39;21.10;99.90
27745;DHT22;61387;48.112;8.616;2023-09-19T15:30:07;21.00;99.90
27745;DHT22;61387;48.112;8.616;2023-09-19T15:32:33;21.00;99.90
27745;DHT22;61387;48.112;8.616;2023-09-19T15:39:51;21.30;99.90
27745;DHT22;61387;48.112;8.616;2023-09-19T15:44:43;21.50;99.90
27745;DHT22;61387;48.112;8.616;2023-09-19T15:52:01;21.80;99.90
27745;DHT22;61387;48.112;8.616;2023-09-19T15:54:28;21.90;99.90
27745;DHT22;61387;48.112;8.616;2023-09-19T15:56:54;21.70;99.90
27745;DHT22;61387;48.112;8.616;2023-09-19T16:04:13;22.10;99.90
27745;DHT22;61387;48.112;8.616;2023-09-19T16:06:40;22.20;99.90
27745;DHT22;61387;48.112;8.616;2023-09-19T16:09:06;22.00;99.90
27745;DHT22;61387;48.112;8.616;2023-09-19T16:11:33;22.30;99.90
27745;DHT22;61387;48.112;8.616;2023-09-19T16:14:00;22.60;99.90
27745;DHT22;61387;48.112;8.616;2023-09-19T16:18:56;22.60;99.90
27745;DHT22;61387;48.112;8.616;2023-09-19T16:21:24;22.10;99.90
27745;DHT22;61387;48.112;8.616;2023-09-19T16:23:50;22.50;99.90
27745;DHT22;61387;48.112;8.616;2023-09-19T16:26:17;22.30;99.90
27745;DHT22;61387;48.112;8.616;2023-09-19T16:28:47;22.10;99.90
27745;DHT22;61387;48.112;8.616;2023-09-19T16:31:13;21.80;99.90
27745;DHT22;61387;48.112;8.616;2023-09-19T16:33:40;21.50;99.90
27745;DHT22;61387;48.112;8.616;2023-09-19T16:36:10;21.50;99.90
27745;DHT22;61387;48.112;8.616;2023-09-19T16:38:36;21.60;99.90
27745;DHT22;61387;48.112;8.616;2023-09-19T16:41:03;21.60;99.90
27745;DHT22;61387;48.112;8.616;2023-09-19T16:43:30;21.70;99.90
27745;DHT22;61387;48.112;8.616;2023-09-19T16:46:00;21.20;99.90
27745;DHT22;61387;48.112;8.616;2023-09-19T16:48:26;20.70;99.90
27745;DHT22;61387;48.112;8.616;2023-09-19T16:50:53;20.30;99.90
27745;DHT22;61387;48.112;8.616;2023-09-19T16:53:19;17.70;99.90
27745;DHT22;61387;48.112;8.616;2023-09-19T16:55:48;19.70;99.90
27745;DHT22;61387;48.112;8.616;2023-09-19T16:58:15;19.60;99.90
27745;DHT22;61387;48.112;8.616;2023-09-19T17:03:12;19.40;99.90
27745;DHT22;61387;48.112;8.616;2023-09-19T17:08:06;19.20;99.90
27745;DHT22;61387;48.112;8.616;2023-09-19T17:10:33;19.20;99.90
27745;DHT22;61387;48.112;8.616;2023-09-19T17:17:52;18.90;99.90
27745;DHT22;61387;48.112;8.616;2023-09-19T17:20:18;18.80;99.90
27745;DHT22;61387;48.112;8.616;2023-09-19T17:22:44;18.70;99.90
27745;DHT22;61387;48.112;8.616;2023-09-19T17:27:38;18.20;99.90
27745;DHT22;61387;48.112;8.616;2023-09-19T17:42:37;17.20;99.90
27745;DHT22;61387;48.112;8.616;2023-09-19T19:26:07;14.00;99.90
27745;DHT22;61387;48.112;8.616;2023-09-19T19:31:01;13.80;99.90
27745;DHT22;61387;48.112;8.616;2023-09-19T19:41:00;13.70;99.90
27745;DHT22;61387;48.112;8.616;2023-09-19T21:33:48;12.10;99.90
27745;DHT22;61387;48.112;8.616;2023-09-19T21:41:17;12.10;99.90
